Terminal Aerodrome Forecast
Issued by NWS

Home | Current Version | Previous Version | Text Only | Print | Product List | Glossary On
Versions: 1 2 3 4 5 6 7 8 9 10 11 12 13
000
FTUS43 KMQT 301735
TAFSAW
TAF
KSAW 301735Z 3018/3118 11007KT P6SM OVC025
      TEMPO 3018/3021 5SM -SHSN
     FM310200 08007KT P6SM BKN020
     FM310600 05008KT P6SM BKN015
     FM311300 03010KT P6SM SCT020
     FM311500 03012KT P6SM SKC=

USA.gov is the U.S. government's official web portal to all federal, state and local government web resources and services.